Black Creek, Georgia
Current Conditions -  °F | °C
As of 12:58 AM on Friday 28 Nov 2014 (Local Time) from KLHW Reporting Station
Clear Clear  
Wind Chill: 35°   Ceiling: Unl
Heat Index: 40°   Visibility: 10mi
Dew Point: 29°   Wind: 8mph
Humidity: 65%   Direction: 300°WNW
Pressure: 30.32"   Gusts: NA
Location:  32.121°N, 81.5002°W
Report Text: KLHW 280558Z AUTO 30007KT 10SM CLR 05/M01 A3032 RMK AO2 SLP271 T00451015 10077 20045 53002
Loading
Personal Weather Stations






























Interactive Weather Map New forecast layout! Learn more

10-Day Weather Forecast

Advertisements
Track Severe Weather on mobile